sensor_id;sensor_type;location;lat;lon;timestamp;pressure;altitude;pressure_sealevel;temperature;humidity
48154;BME280;33942;49.272;14.452;2022-11-11T08:59:53;98780.79;;;0.95;100.00
48154;BME280;33942;49.272;14.452;2022-11-11T09:02:21;98777.23;;;2.64;100.00
48154;BME280;33942;49.272;14.452;2022-11-11T09:04:48;98780.68;;;5.98;100.00
48154;BME280;33942;49.272;14.452;2022-11-11T09:07:16;98781.44;;;6.43;100.00
48154;BME280;33942;49.272;14.452;2022-11-11T09:09:43;98777.45;;;7.11;100.00
48154;BME280;33942;49.272;14.452;2022-11-11T09:12:11;98769.73;;;7.42;100.00
48154;BME280;33942;49.272;14.452;2022-11-11T09:14:38;98773.06;;;7.89;100.00
48154;BME280;33942;49.272;14.452;2022-11-11T09:17:06;98772.86;;;7.96;100.00
48154;BME280;33942;49.272;14.452;2022-11-11T09:19:33;98771.41;;;7.89;100.00
48154;BME280;33942;49.272;14.452;2022-11-11T09:22:00;98769.26;;;8.00;100.00
48154;BME280;33942;49.272;14.452;2022-11-11T09:24:28;98770.36;;;8.55;100.00
48154;BME280;33942;49.272;14.452;2022-11-11T09:26:55;98763.68;;;8.76;100.00
48154;BME280;33942;49.272;14.452;2022-11-11T09:29:22;98757.53;;;8.68;100.00
48154;BME280;33942;49.272;14.452;2022-11-11T09:31:50;98753.22;;;8.83;100.00
48154;BME280;33942;49.272;14.452;2022-11-11T09:34:17;98753.09;;;9.09;100.00
48154;BME280;33942;49.272;14.452;2022-11-11T09:36:45;98754.51;;;9.45;100.00
48154;BME280;33942;49.272;14.452;2022-11-11T09:39:12;98753.72;;;9.73;100.00
48154;BME280;33942;49.272;14.452;2022-11-11T09:41:50;98751.74;;;9.48;99.93
48154;BME280;33942;49.272;14.452;2022-11-11T09:44:33;98757.75;;;9.80;100.00
48154;BME280;33942;49.272;14.452;2022-11-11T09:47:10;98755.09;;;10.35;99.33
48154;BME280;33942;49.272;14.452;2022-11-11T09:49:53;98754.17;;;10.80;99.38
48154;BME280;33942;49.272;14.452;2022-11-11T09:52:25;98758.01;;;11.06;97.76
48154;BME280;33942;49.272;14.452;2022-11-11T09:54:58;98765.00;;;10.82;100.00
48154;BME280;33942;49.272;14.452;2022-11-11T09:57:33;98768.49;;;11.56;99.43
48154;BME280;33942;49.272;14.452;2022-11-11T10:00:06;98771.18;;;11.50;98.23
48154;BME280;33942;49.272;14.452;2022-11-11T10:02:40;98775.08;;;11.39;97.84
48154;BME280;33942;49.272;14.452;2022-11-11T10:06:19;98769.34;;;11.59;96.73
48154;BME280;33942;49.272;14.452;2022-11-11T10:08:54;98764.81;;;11.79;96.73
48154;BME280;33942;49.272;14.452;2022-11-11T10:11:28;98766.66;;;12.24;94.52
48154;BME280;33942;49.272;14.452;2022-11-11T10:14:01;98759.39;;;12.28;93.92
48154;BME280;33942;49.272;14.452;2022-11-11T10:16:35;98747.49;;;12.91;89.08
48154;BME280;33942;49.272;14.452;2022-11-11T10:19:17;98740.43;;;13.53;89.63
48154;BME280;33942;49.272;14.452;2022-11-11T10:21:50;98732.12;;;13.68;86.51
48154;BME280;33942;49.272;14.452;2022-11-11T10:24:24;98732.35;;;14.01;84.28
48154;BME280;33942;49.272;14.452;2022-11-11T10:26:52;98731.66;;;14.06;83.68
48154;BME280;33942;49.272;14.452;2022-11-11T10:29:22;98741.06;;;13.95;82.53
48154;BME280;33942;49.272;14.452;2022-11-11T10:32:02;98744.07;;;13.97;83.63
48154;BME280;33942;49.272;14.452;2022-11-11T10:34:33;98745.12;;;14.01;85.16
48154;BME280;33942;49.272;14.452;2022-11-11T10:37:17;98745.56;;;13.89;87.03
48154;BME280;33942;49.272;14.452;2022-11-11T10:39:55;98746.09;;;14.07;85.87
48154;BME280;33942;49.272;14.452;2022-11-11T10:42:26;98746.00;;;14.00;85.72
48154;BME280;33942;49.272;14.452;2022-11-11T10:44:58;98744.45;;;13.86;86.24
48154;BME280;33942;49.272;14.452;2022-11-11T10:47:39;98737.98;;;14.20;84.26
48154;BME280;33942;49.272;14.452;2022-11-11T10:50:15;98739.53;;;14.56;82.57
48154;BME280;33942;49.272;14.452;2022-11-11T10:52:49;98735.18;;;14.84;82.18
48154;BME280;33942;49.272;14.452;2022-11-11T10:55:26;98730.70;;;14.90;81.18
48154;BME280;33942;49.272;14.452;2022-11-11T10:58:04;98729.12;;;14.92;80.23
48154;BME280;33942;49.272;14.452;2022-11-11T11:00:50;98729.48;;;14.59;78.96
48154;BME280;33942;49.272;14.452;2022-11-11T11:03:22;98732.79;;;14.92;77.82
48154;BME280;33942;49.272;14.452;2022-11-11T11:05:56;98732.14;;;15.16;76.03
48154;BME280;33942;49.272;14.452;2022-11-11T11:08:29;98729.71;;;14.79;74.48
48154;BME280;33942;49.272;14.452;2022-11-11T11:11:03;98735.82;;;15.32;74.51
48154;BME280;33942;49.272;14.452;2022-11-11T11:13:38;98736.78;;;15.35;73.78
48154;BME280;33942;49.272;14.452;2022-11-11T11:16:13;98733.74;;;15.25;74.84
48154;BME280;33942;49.272;14.452;2022-11-11T11:18:43;98737.70;;;15.53;76.39
48154;BME280;33942;49.272;14.452;2022-11-11T11:21:11;98735.40;;;14.98;76.55
48154;BME280;33942;49.272;14.452;2022-11-11T11:23:41;98732.52;;;15.64;76.00
48154;BME280;33942;49.272;14.452;2022-11-11T11:26:10;98731.98;;;15.44;74.75
48154;BME280;33942;49.272;14.452;2022-11-11T11:28:53;98732.97;;;15.47;76.35
48154;BME280;33942;49.272;14.452;2022-11-11T11:31:34;98733.95;;;15.81;75.71
48154;BME280;33942;49.272;14.452;2022-11-11T11:34:03;98739.71;;;15.83;75.95
48154;BME280;33942;49.272;14.452;2022-11-11T11:36:31;98736.79;;;16.04;73.39
48154;BME280;33942;49.272;14.452;2022-11-11T11:38:58;98728.31;;;16.04;74.25
48154;BME280;33942;49.272;14.452;2022-11-11T11:41:43;98717.47;;;16.43;72.12
48154;BME280;33942;49.272;14.452;2022-11-11T11:44:24;98714.09;;;16.85;72.70
48154;BME280;33942;49.272;14.452;2022-11-11T11:46:54;98712.19;;;17.03;70.34
48154;BME280;33942;49.272;14.452;2022-11-11T11:49:42;98714.40;;;17.44;66.18
48154;BME280;33942;49.272;14.452;2022-11-11T11:52:20;98716.53;;;17.22;63.80
48154;BME280;33942;49.272;14.452;2022-11-11T11:54:54;98710.59;;;17.28;63.60
48154;BME280;33942;49.272;14.452;2022-11-11T11:57:37;98711.56;;;17.43;63.94
48154;BME280;33942;49.272;14.452;2022-11-11T12:00:17;98715.48;;;17.02;64.27
48154;BME280;33942;49.272;14.452;2022-11-11T12:03:02;98715.56;;;17.45;65.84
48154;BME280;33942;49.272;14.452;2022-11-11T12:05:38;98715.92;;;17.39;66.25
48154;BME280;33942;49.272;14.452;2022-11-11T12:08:19;98712.52;;;17.88;66.59
48154;BME280;33942;49.272;14.452;2022-11-11T12:10:55;98704.47;;;17.89;65.17
48154;BME280;33942;49.272;14.452;2022-11-11T12:13:33;98696.93;;;18.27;63.22
48154;BME280;33942;49.272;14.452;2022-11-11T12:16:13;98699.85;;;18.44;56.18
48154;BME280;33942;49.272;14.452;2022-11-11T12:19:02;98702.18;;;18.45;54.18
48154;BME280;33942;49.272;14.452;2022-11-11T12:21:43;98700.79;;;18.26;53.95
48154;BME280;33942;49.272;14.452;2022-11-11T12:24:30;98698.07;;;18.16;54.25
48154;BME280;33942;49.272;14.452;2022-11-11T12:27:08;98692.83;;;17.93;53.61
48154;BME280;33942;49.272;14.452;2022-11-11T12:29:49;98692.95;;;18.10;52.89
48154;BME280;33942;49.272;14.452;2022-11-11T12:32:33;98689.31;;;17.56;52.75
48154;BME280;33942;49.272;14.452;2022-11-11T12:35:31;98688.62;;;17.48;54.03
48154;BME280;33942;49.272;14.452;2022-11-11T12:38:20;98695.23;;;17.77;54.67
48154;BME280;33942;49.272;14.452;2022-11-11T12:41:00;98693.71;;;17.98;52.21
48154;BME280;33942;49.272;14.452;2022-11-11T12:43:40;98691.27;;;17.58;52.80
48154;BME280;33942;49.272;14.452;2022-11-11T12:46:21;98692.84;;;17.69;52.18
48154;BME280;33942;49.272;14.452;2022-11-11T12:49:04;98698.03;;;17.72;52.97
48154;BME280;33942;49.272;14.452;2022-11-11T12:51:48;98695.43;;;17.86;54.50
48154;BME280;33942;49.272;14.452;2022-11-11T12:54:29;98690.37;;;18.22;54.70
48154;BME280;33942;49.272;14.452;2022-11-11T12:57:13;98691.18;;;18.25;54.49
48154;BME280;33942;49.272;14.452;2022-11-11T13:00:57;98690.50;;;18.60;55.36
48154;BME280;33942;49.272;14.452;2022-11-11T13:03:44;98688.41;;;18.47;53.51
48154;BME280;33942;49.272;14.452;2022-11-11T13:06:30;98684.95;;;18.88;53.43
48154;BME280;33942;49.272;14.452;2022-11-11T13:09:14;98690.45;;;19.09;51.10
48154;BME280;33942;49.272;14.452;2022-11-11T13:11:54;98687.84;;;19.15;49.32
48154;BME280;33942;49.272;14.452;2022-11-11T13:14:41;98683.84;;;19.43;51.57
48154;BME280;33942;49.272;14.452;2022-11-11T13:17:11;98675.98;;;19.42;49.89
